Pagrindinis puslapis
METAR-TAF:

METAR-TAF

Oro uostai :

Buriram, Tailandas

platuma: 15-13-46N, ilguma: 103-15-04E, Aukštis: 180 m

Dabartinis oras

Ataskaita buvo paskelbta 8 valandos ir 5 minutes, ne 13:00 UTC
Vėjas 3 kt iš Pietų/Pietryčių
Temperatūra 26°C
Drėgmė 100%
Slėgis 1009 hPa
Matomumas: 9000 m

METAR: VTUO 221300Z 15003KT 9000 NSC 26/26 Q1009 NOSIG

Laikas: 04:05 (21:05 UTC)

Prognozė

Ataskaita buvo paskelbta 4 valandos ir 5 minutes, ne 17:00 UTC
Prognozė galioja nuo 22 metu 18 UTC su 23 metu 18 UTC
Vėjas 5 kt iš Pietų/Pietryčių
Matomumas: 9000 m
Mažai debesys ne aukštis 3000 ft
Laikinai
nuo 23 metu 05 UTC su 23 metu 09 UTC
Vėjas 15 kt iš Rytų
Matomumas: 4000 m
Mažai debesys ne aukštis 1800 ft, Liūtiniai kamuoliniai debesys.
Su prošvaistėmis ne aukštis 2500 ft
perkūnija, lietus

TAF: VTUO 221700Z 2218/2318 16005KT 9000 FEW030 TEMPO 2305/2309 08015KT 4000 TSRA FEW018CB BKN025

Orai ataskaitas ir orų prognozės (METAR, TAF).

turimą stotys yra geltonos ir raudonos taškus žemėlapyje.

Perkelti pele per norėdami pamatyti stoties vardą.

Tada spustelėkite, norėdami matyti oro stebėjimo ir prognozės.

Norėdami pakeisti žemėlapį: spustelėkite ant žalios mygtukų su juodo kryžiaus žemyn,; žalią mygtuką su brūkšneliu, jei norite nutolinti; arba žalių rodyklių gretimoms žemėlapius.


METAR-TAF: